createdAt,value
2022-11-25T00:00:02.410Z,23.88
2022-11-25T00:02:47.280Z,25.95
2022-11-25T00:05:18.689Z,18.48
2022-11-25T00:07:49.498Z,20.10
2022-11-25T00:10:23.110Z,24.75
2022-11-25T00:12:53.913Z,24.98
2022-11-25T00:15:25.189Z,22.83
2022-11-25T00:17:56.680Z,20.85
2022-11-25T00:20:27.944Z,23.95
2022-11-25T00:22:58.734Z,25.05
2022-11-25T00:25:32.091Z,18.00
2022-11-25T00:28:02.872Z,25.05
2022-11-25T00:30:33.791Z,17.00
2022-11-25T00:33:04.737Z,19.50
2022-11-25T00:35:38.055Z,19.30
2022-11-25T00:38:08.801Z,14.80
2022-11-25T00:40:42.238Z,15.82
2022-11-25T00:43:25.988Z,18.15
2022-11-25T00:45:56.812Z,15.68
2022-11-25T00:48:28.008Z,15.48
2022-11-25T00:50:58.775Z,16.15
2022-11-25T00:53:29.548Z,15.98
2022-11-25T00:56:17.303Z,18.02
2022-11-25T00:58:48.414Z,16.83
2022-11-25T01:01:19.688Z,21.15
2022-11-25T01:03:52.802Z,15.27
2022-11-25T01:06:24.544Z,18.55
2022-11-25T01:08:56.033Z,19.45
2022-11-25T01:11:29.498Z,22.27
2022-11-25T01:14:01.705Z,20.55
2022-11-25T01:16:33.913Z,15.38
2022-11-25T01:19:06.000Z,24.35
2022-11-25T01:21:37.768Z,17.92
2022-11-25T01:24:10.613Z,12.68
2022-11-25T01:26:45.100Z,20.80
2022-11-25T01:29:18.723Z,17.83
2022-11-25T01:31:50.246Z,24.83
2022-11-25T01:34:26.375Z,17.35
2022-11-25T01:36:57.469Z,18.38
2022-11-25T01:39:32.930Z,21.63
2022-11-25T01:42:07.564Z,22.52
2022-11-25T01:44:42.667Z,18.75
2022-11-25T01:47:19.395Z,20.35
2022-11-25T01:49:54.441Z,15.57
2022-11-25T01:52:28.010Z,23.17
2022-11-25T01:55:04.130Z,21.23
2022-11-25T01:57:42.764Z,21.55
2022-11-25T02:00:14.929Z,22.77
2022-11-25T02:02:50.138Z,14.60
2022-11-25T02:05:29.600Z,22.20
2022-11-25T02:08:04.250Z,14.30
2022-11-25T02:10:36.985Z,12.70
2022-11-25T02:13:10.441Z,19.27
2022-11-25T02:15:41.239Z,18.45
2022-11-25T02:18:12.434Z,20.65
2022-11-25T02:20:44.038Z,15.23
2022-11-25T02:23:25.884Z,11.40
2022-11-25T02:26:01.534Z,12.90
2022-11-25T02:28:34.498Z,15.45
2022-11-25T02:31:07.299Z,14.52
2022-11-25T02:33:39.856Z,12.93
2022-11-25T02:36:16.058Z,14.40
2022-11-25T02:38:50.274Z,16.60
2022-11-25T02:41:28.808Z,14.40
2022-11-25T02:44:04.682Z,16.23
2022-11-25T02:46:37.175Z,12.18
2022-11-25T02:49:09.873Z,18.50
2022-11-25T02:51:44.138Z,13.32
2022-11-25T02:54:15.942Z,13.65
2022-11-25T02:56:49.827Z,12.98
2022-11-25T02:59:20.668Z,18.75
2022-11-25T03:01:52.524Z,13.02
2022-11-25T03:04:23.806Z,12.85
2022-11-25T03:06:54.744Z,13.00
2022-11-25T03:09:25.465Z,10.52
2022-11-25T03:12:12.746Z,12.40
2022-11-25T03:14:43.503Z,8.85
2022-11-25T03:17:16.207Z,12.88
2022-11-25T03:19:47.582Z,14.30
2022-11-25T03:22:18.713Z,14.40
2022-11-25T03:24:49.689Z,10.95
2022-11-25T03:27:23.465Z,16.23
2022-11-25T03:29:54.734Z,17.73
2022-11-25T03:32:25.839Z,15.77
2022-11-25T03:34:56.616Z,12.07
2022-11-25T03:37:27.557Z,13.70
2022-11-25T03:39:59.169Z,9.50
2022-11-25T03:42:33.456Z,9.55
2022-11-25T03:45:05.223Z,11.35
2022-11-25T03:47:36.377Z,8.90
2022-11-25T03:50:09.684Z,12.98
2022-11-25T03:52:41.151Z,10.02
2022-11-25T03:55:14.053Z,9.05
2022-11-25T03:57:51.141Z,11.80
2022-11-25T04:00:23.404Z,8.35
2022-11-25T04:02:58.109Z,12.38
2022-11-25T04:05:28.935Z,12.60
2022-11-25T04:08:03.445Z,7.53
2022-11-25T04:10:35.752Z,10.70
2022-11-25T04:13:09.464Z,18.45
2022-11-25T04:15:48.890Z,10.68
2022-11-25T04:18:23.208Z,10.10
2022-11-25T04:20:58.543Z,13.23
2022-11-25T04:23:29.522Z,9.07
2022-11-25T04:26:05.006Z,9.13
2022-11-25T04:28:43.439Z,11.50
2022-11-25T04:31:14.722Z,6.90
2022-11-25T04:33:52.411Z,11.27
2022-11-25T04:36:25.012Z,9.68
2022-11-25T04:38:56.302Z,11.65
2022-11-25T04:41:27.905Z,11.32
2022-11-25T04:44:02.863Z,11.95
2022-11-25T04:46:39.320Z,7.63
2022-11-25T04:49:10.313Z,8.52
2022-11-25T04:51:42.476Z,8.10
2022-11-25T04:54:17.319Z,9.95
2022-11-25T04:56:49.211Z,10.50
2022-11-25T04:59:36.759Z,10.75
2022-11-25T05:02:07.650Z,9.75
2022-11-25T05:07:16.502Z,21.52
2022-11-25T05:09:49.638Z,11.80
2022-11-25T05:15:01.124Z,8.35
2022-11-25T05:17:35.176Z,8.90
2022-11-25T05:20:06.818Z,11.27
2022-11-25T05:22:39.378Z,11.10
2022-11-25T05:25:13.283Z,12.80
2022-11-25T05:27:54.840Z,10.52
2022-11-25T05:30:29.073Z,11.00
2022-11-25T05:33:00.241Z,12.27
2022-11-25T05:35:31.075Z,11.43
2022-11-25T05:38:04.629Z,12.07
2022-11-25T05:40:37.561Z,9.38
2022-11-25T05:43:14.479Z,12.40
2022-11-25T05:45:48.536Z,14.75
2022-11-25T05:48:19.336Z,13.55
2022-11-25T05:50:50.732Z,10.15
2022-11-25T05:53:24.687Z,10.93
2022-11-25T05:55:59.653Z,15.98
2022-11-25T05:58:49.339Z,13.85
2022-11-25T06:01:23.588Z,13.60
2022-11-25T06:03:54.364Z,12.35
2022-11-25T06:06:25.733Z,13.23
2022-11-25T06:08:56.517Z,15.90
2022-11-25T06:11:28.435Z,8.50
2022-11-25T06:14:00.965Z,10.93
2022-11-25T06:16:35.487Z,15.05
2022-11-25T06:19:27.258Z,12.20
2022-11-25T06:21:58.356Z,12.48
2022-11-25T06:24:30.999Z,8.23
2022-11-25T06:27:06.842Z,8.95
2022-11-25T06:29:39.557Z,12.07
2022-11-25T06:32:13.462Z,14.65
2022-11-25T06:35:07.184Z,10.07
2022-11-25T06:37:44.593Z,12.20
2022-11-25T06:40:15.903Z,7.45
2022-11-25T06:42:46.919Z,10.80
2022-11-25T06:45:18.414Z,9.13
2022-11-25T06:47:51.803Z,11.88
2022-11-25T06:50:22.609Z,11.88
2022-11-25T06:52:53.431Z,9.55
2022-11-25T06:55:24.196Z,9.63
2022-11-25T06:58:08.454Z,12.77
2022-11-25T07:00:46.949Z,9.00
2022-11-25T07:03:20.899Z,14.02
2022-11-25T07:05:52.858Z,10.82
2022-11-25T07:08:26.416Z,10.07
2022-11-25T07:11:06.594Z,7.53
2022-11-25T07:13:38.312Z,9.27
2022-11-25T07:16:11.448Z,10.77
2022-11-25T07:18:45.363Z,15.95
2022-11-25T07:21:18.192Z,7.45
2022-11-25T07:23:50.149Z,5.07
2022-11-25T07:26:23.227Z,6.03
2022-11-25T07:28:55.105Z,10.07
2022-11-25T07:31:31.198Z,10.10
2022-11-25T07:34:08.193Z,6.15
2022-11-25T07:36:39.786Z,6.75
2022-11-25T07:39:15.118Z,9.23
2022-11-25T07:41:46.076Z,9.15
2022-11-25T07:44:18.755Z,3.88
2022-11-25T07:46:55.590Z,7.20
2022-11-25T07:49:29.677Z,8.80
2022-11-25T07:52:04.669Z,8.98
2022-11-25T07:54:35.984Z,13.93
2022-11-25T07:57:07.273Z,7.50
2022-11-25T07:59:41.557Z,10.95
2022-11-25T08:02:14.046Z,10.75
2022-11-25T08:04:48.110Z,8.85
2022-11-25T08:07:19.380Z,9.02
2022-11-25T08:09:51.752Z,6.95
2022-11-25T08:12:23.490Z,6.20
2022-11-25T08:14:54.598Z,6.32
2022-11-25T08:17:26.137Z,8.93
2022-11-25T08:20:00.025Z,8.90
2022-11-25T08:22:32.263Z,7.70
2022-11-25T08:25:03.524Z,9.13
2022-11-25T08:27:34.687Z,11.60
2022-11-25T08:30:06.030Z,7.50
2022-11-25T08:32:40.983Z,9.65
2022-11-25T08:35:15.490Z,8.60
2022-11-25T08:37:46.538Z,11.60
2022-11-25T08:40:17.750Z,14.38
2022-11-25T08:42:48.777Z,18.98
2022-11-25T08:45:19.720Z,20.88
2022-11-25T08:47:50.968Z,20.38
2022-11-25T08:50:25.335Z,24.90
2022-11-25T08:52:57.881Z,19.08
2022-11-25T08:55:29.369Z,18.45
2022-11-25T08:58:00.314Z,22.45
2022-11-25T09:00:31.163Z,17.40
2022-11-25T09:03:04.357Z,17.90
2022-11-25T09:05:42.442Z,15.70
2022-11-25T09:08:14.489Z,19.02
2022-11-25T09:10:45.584Z,19.95
2022-11-25T09:13:16.536Z,17.60
2022-11-25T09:15:47.936Z,16.38
2022-11-25T09:18:20.513Z,19.77
2022-11-25T09:20:54.701Z,18.50
2022-11-25T09:23:26.533Z,15.75
2022-11-25T09:25:58.920Z,16.30
2022-11-25T09:28:30.437Z,17.73
2022-11-25T09:31:02.081Z,16.80
2022-11-25T09:33:33.227Z,18.90
2022-11-25T09:36:07.762Z,13.77
2022-11-25T09:38:42.974Z,19.45
2022-11-25T09:41:40.446Z,23.92
2022-11-25T09:44:32.928Z,21.25
2022-11-25T09:47:10.933Z,16.55
2022-11-25T09:49:53.788Z,20.55
2022-11-25T09:52:39.203Z,21.27
2022-11-25T09:55:14.585Z,23.08
2022-11-25T09:58:06.276Z,22.23
2022-11-25T10:00:43.175Z,15.70
2022-11-25T10:05:55.681Z,17.00
2022-11-25T10:08:34.344Z,20.33
2022-11-25T10:11:11.421Z,17.10
2022-11-25T10:13:54.160Z,17.25
2022-11-25T10:16:39.057Z,16.15
2022-11-25T10:19:18.814Z,22.63
2022-11-25T10:21:50.154Z,20.75
2022-11-25T10:24:24.516Z,19.38
2022-11-25T10:27:01.297Z,21.30
2022-11-25T10:29:34.697Z,16.80
2022-11-25T10:32:25.980Z,19.52
2022-11-25T10:35:01.280Z,26.98
2022-11-25T10:37:36.963Z,20.52
2022-11-25T10:40:17.531Z,21.08
2022-11-25T10:42:48.312Z,24.00
2022-11-25T10:45:19.547Z,20.48
2022-11-25T10:48:06.576Z,17.75
2022-11-25T10:50:48.514Z,14.73
2022-11-25T10:53:23.684Z,18.98
2022-11-25T10:56:05.536Z,22.48
2022-11-25T10:58:38.393Z,17.00
2022-11-25T11:01:17.151Z,18.05
2022-11-25T11:03:49.987Z,20.15
2022-11-25T11:06:36.086Z,19.75
2022-11-25T11:09:07.865Z,20.05
2022-11-25T11:11:51.782Z,18.02
2022-11-25T11:14:30.150Z,23.13
2022-11-25T11:17:02.939Z,18.25
2022-11-25T11:19:34.991Z,24.10
2022-11-25T11:22:20.472Z,17.88
2022-11-25T11:24:51.427Z,14.80
2022-11-25T11:27:28.663Z,14.88
2022-11-25T11:30:11.970Z,20.55
2022-11-25T11:32:48.145Z,23.60
2022-11-25T11:35:26.627Z,12.70
2022-11-25T11:38:02.286Z,19.98
2022-11-25T11:40:41.278Z,14.43
2022-11-25T11:43:40.148Z,17.85
2022-11-25T11:46:25.496Z,17.13
2022-11-25T11:49:06.254Z,18.35
2022-11-25T11:51:48.945Z,16.50
2022-11-25T11:54:25.685Z,15.23
2022-11-25T11:57:02.933Z,19.10
2022-11-25T11:59:53.675Z,14.07
2022-11-25T12:02:34.627Z,18.63
2022-11-25T12:05:17.761Z,15.00
2022-11-25T12:07:57.335Z,15.27
2022-11-25T12:10:33.105Z,19.50
2022-11-25T12:13:16.733Z,21.98
2022-11-25T12:15:56.017Z,16.52
2022-11-25T12:18:38.240Z,20.52
2022-11-25T12:21:14.492Z,19.58
2022-11-25T12:23:55.150Z,18.60
2022-11-25T12:26:32.452Z,19.77
2022-11-25T12:29:11.119Z,17.40
2022-11-25T12:31:52.052Z,16.80
2022-11-25T12:34:32.170Z,16.95
2022-11-25T12:37:14.785Z,15.30
2022-11-25T12:39:51.624Z,23.65
2022-11-25T12:42:27.398Z,11.80
2022-11-25T12:45:06.439Z,19.30
2022-11-25T12:47:40.369Z,15.10
2022-11-25T12:50:19.383Z,16.02
2022-11-25T12:52:59.965Z,14.55
2022-11-25T12:55:31.980Z,14.75
2022-11-25T12:58:36.118Z,19.20
2022-11-25T13:01:39.859Z,16.48
2022-11-25T13:04:39.159Z,16.38
2022-11-25T13:07:37.128Z,10.45
2022-11-25T13:10:38.763Z,11.43
2022-11-25T13:13:34.208Z,15.00
2022-11-25T13:16:10.469Z,15.18
2022-11-25T13:18:44.456Z,13.40
2022-11-25T13:21:19.047Z,15.48
2022-11-25T13:23:56.642Z,14.95
2022-11-25T13:26:50.251Z,13.75
2022-11-25T13:30:05.498Z,14.75
2022-11-25T13:32:39.428Z,9.02
2022-11-25T13:35:43.145Z,14.57
2022-11-25T13:38:50.119Z,20.65
2022-11-25T13:41:45.482Z,12.43
2022-11-25T13:44:29.980Z,13.13
2022-11-25T13:47:03.152Z,14.40
2022-11-25T13:49:44.929Z,14.73
2022-11-25T13:52:48.525Z,21.15
2022-11-25T13:55:33.486Z,15.00
2022-11-25T13:58:26.183Z,15.50
2022-11-25T14:01:29.424Z,16.65
2022-11-25T14:04:03.261Z,10.77
2022-11-25T14:06:44.360Z,11.77
2022-11-25T14:09:31.798Z,12.70
2022-11-25T14:14:56.235Z,12.63
2022-11-25T14:17:51.954Z,19.20
2022-11-25T14:20:36.229Z,18.17
2022-11-25T14:23:35.768Z,9.65
2022-11-25T14:26:41.778Z,13.60
2022-11-25T14:29:06.319Z,16.00
2022-11-25T14:31:46.235Z,12.98
2022-11-25T14:34:23.076Z,14.50
2022-11-25T14:36:57.995Z,16.50
2022-11-25T14:39:34.747Z,17.65
2022-11-25T14:44:45.446Z,20.23
2022-11-25T14:47:19.439Z,9.05
2022-11-25T14:50:05.727Z,11.63
2022-11-25T14:52:47.935Z,13.15
2022-11-25T14:55:29.808Z,13.15
2022-11-25T14:58:01.050Z,11.80
2022-11-25T15:00:32.441Z,20.40
2022-11-25T15:03:08.193Z,18.10
2022-11-25T15:05:41.869Z,16.02
2022-11-25T15:08:18.154Z,15.82
2022-11-25T15:10:55.368Z,9.38
2022-11-25T15:13:35.285Z,15.35
2022-11-25T15:16:11.808Z,12.88
2022-11-25T15:18:53.935Z,12.30
2022-11-25T15:21:30.721Z,11.10
2022-11-25T15:24:02.063Z,10.90
2022-11-25T15:26:34.931Z,17.75
2022-11-25T15:29:13.464Z,16.10
2022-11-25T15:31:45.012Z,14.18
2022-11-25T15:34:20.417Z,14.57
2022-11-25T15:36:54.439Z,12.85
2022-11-25T15:39:31.047Z,14.82
2022-11-25T15:42:11.226Z,13.67
2022-11-25T15:44:48.015Z,13.63
2022-11-25T15:47:24.813Z,10.57
2022-11-25T15:50:04.141Z,13.55
2022-11-25T15:52:37.687Z,8.30
2022-11-25T15:55:11.611Z,12.40
2022-11-25T15:57:42.930Z,13.35
2022-11-25T16:00:19.580Z,13.80
2022-11-25T16:02:56.020Z,12.65
2022-11-25T16:05:35.033Z,12.32
2022-11-25T16:08:27.320Z,15.00
2022-11-25T16:11:00.698Z,21.33
2022-11-25T16:13:34.221Z,29.95
2022-11-25T16:16:15.151Z,17.38
2022-11-25T16:18:55.501Z,12.05
2022-11-25T16:21:31.560Z,14.75
2022-11-25T16:24:25.450Z,20.20
2022-11-25T16:27:00.996Z,16.13
2022-11-25T16:29:35.855Z,13.00
2022-11-25T16:32:18.157Z,12.55
2022-11-25T16:34:50.262Z,21.95
2022-11-25T16:37:24.008Z,15.35
2022-11-25T16:39:54.881Z,19.30
2022-11-25T16:42:26.395Z,10.50
2022-11-25T16:44:57.358Z,13.68
2022-11-25T16:47:29.839Z,17.45
2022-11-25T16:50:01.613Z,12.70
2022-11-25T16:52:35.910Z,17.70
2022-11-25T16:55:07.213Z,16.52
2022-11-25T16:57:38.666Z,14.65
2022-11-25T17:00:17.381Z,13.38
2022-11-25T17:02:49.054Z,12.20
2022-11-25T17:05:22.324Z,14.73
2022-11-25T17:07:56.963Z,16.73
2022-11-25T17:10:29.618Z,13.57
2022-11-25T17:13:00.953Z,15.05
2022-11-25T17:15:36.556Z,17.30
2022-11-25T17:18:10.701Z,12.43
2022-11-25T17:20:41.828Z,16.00
2022-11-25T17:23:19.742Z,14.43
2022-11-25T17:25:54.799Z,13.27
2022-11-25T17:28:26.026Z,17.20
2022-11-25T17:30:57.968Z,14.07
2022-11-25T17:33:29.006Z,12.73
2022-11-25T17:36:00.086Z,19.75
2022-11-25T17:38:39.596Z,19.38
2022-11-25T17:41:15.145Z,17.63
2022-11-25T17:43:47.418Z,21.60
2022-11-25T17:46:20.409Z,16.73
2022-11-25T17:48:51.945Z,18.23
2022-11-25T17:51:24.105Z,14.07
2022-11-25T17:53:57.881Z,16.17
2022-11-25T17:56:32.606Z,18.45
2022-11-25T17:59:06.372Z,19.88
2022-11-25T18:01:37.851Z,19.15
2022-11-25T18:04:19.569Z,24.52
2022-11-25T18:06:50.730Z,23.42
2022-11-25T18:09:24.745Z,28.05
2022-11-25T18:11:58.943Z,27.27
2022-11-25T18:14:33.919Z,30.60
2022-11-25T18:17:07.909Z,37.08
2022-11-25T18:19:39.253Z,38.00
2022-11-25T18:22:16.490Z,31.40
2022-11-25T18:24:50.730Z,38.78
2022-11-25T18:27:27.519Z,62.25
2022-11-25T18:30:02.709Z,35.75
2022-11-25T18:32:35.005Z,46.95
2022-11-25T18:35:08.922Z,64.15
2022-11-25T18:37:39.708Z,50.33
2022-11-25T18:40:14.940Z,61.90
2022-11-25T18:42:48.091Z,57.22
2022-11-25T18:45:22.422Z,48.20
2022-11-25T18:47:53.841Z,51.28
2022-11-25T18:50:26.539Z,44.90
2022-11-25T18:52:58.215Z,40.65
2022-11-25T18:55:32.352Z,38.38
2022-11-25T18:58:04.402Z,39.03
2022-11-25T19:00:35.266Z,42.53
2022-11-25T19:03:06.862Z,37.33
2022-11-25T19:05:38.054Z,34.00
2022-11-25T19:08:10.317Z,35.25
2022-11-25T19:10:46.591Z,33.10
2022-11-25T19:13:20.375Z,45.42
2022-11-25T19:15:52.063Z,46.28
2022-11-25T19:18:27.589Z,60.67
2022-11-25T19:20:59.254Z,46.22
2022-11-25T19:23:30.787Z,30.75
2022-11-25T19:26:10.037Z,23.10
2022-11-25T19:28:41.079Z,32.92
2022-11-25T19:31:14.165Z,31.35
2022-11-25T19:33:46.881Z,35.72
2022-11-25T19:36:26.160Z,68.30
2022-11-25T19:38:57.855Z,125.82
2022-11-25T19:41:31.908Z,119.18
2022-11-25T19:44:03.819Z,112.97
2022-11-25T19:46:52.684Z,96.95
2022-11-25T19:49:27.412Z,75.13
2022-11-25T19:52:00.174Z,67.18
2022-11-25T19:54:32.290Z,64.97
2022-11-25T19:57:06.582Z,56.45
2022-11-25T19:59:38.741Z,48.70
2022-11-25T20:02:16.580Z,44.03
2022-11-25T20:04:49.366Z,40.15
2022-11-25T20:07:23.878Z,36.60
2022-11-25T20:09:57.041Z,35.35
2022-11-25T20:12:32.341Z,50.33
2022-11-25T20:15:03.604Z,57.85
2022-11-25T20:17:36.996Z,56.53
2022-11-25T20:20:12.812Z,74.60
2022-11-25T20:22:48.111Z,61.60
2022-11-25T20:25:19.798Z,61.65
2022-11-25T20:27:53.860Z,54.85
2022-11-25T20:30:27.340Z,54.17
2022-11-25T20:32:59.460Z,57.03
2022-11-25T20:35:32.140Z,53.22
2022-11-25T20:38:04.002Z,58.20
2022-11-25T20:40:41.914Z,51.10
2022-11-25T20:43:29.412Z,49.00
2022-11-25T20:46:02.052Z,47.35
2022-11-25T20:48:35.238Z,43.08
2022-11-25T20:51:10.134Z,41.97
2022-11-25T20:53:42.855Z,33.75
2022-11-25T20:56:16.844Z,39.00
2022-11-25T20:58:51.315Z,41.75
2022-11-25T21:01:22.742Z,39.05
2022-11-25T21:03:54.185Z,46.28
2022-11-25T21:06:28.339Z,37.08
2022-11-25T21:09:02.562Z,33.55
2022-11-25T21:11:35.836Z,41.33
2022-11-25T21:14:15.178Z,36.63
2022-11-25T21:16:46.906Z,33.40
2022-11-25T21:19:18.054Z,34.20
2022-11-25T21:21:52.082Z,34.83
2022-11-25T21:24:34.653Z,51.30
2022-11-25T21:27:13.981Z,51.42
2022-11-25T21:29:49.444Z,66.38
2022-11-25T21:32:24.296Z,59.05
2022-11-25T21:34:55.867Z,69.32
2022-11-25T21:37:32.824Z,63.63
2022-11-25T21:40:04.341Z,68.95
2022-11-25T21:42:36.268Z,64.20
2022-11-25T21:45:16.431Z,54.88
2022-11-25T21:47:47.943Z,55.20
2022-11-25T21:53:07.773Z,53.53
2022-11-25T21:55:39.435Z,48.25
2022-11-25T21:58:18.665Z,55.25
2022-11-25T22:00:54.781Z,63.28
2022-11-25T22:03:26.805Z,59.47
2022-11-25T22:05:58.609Z,56.00
2022-11-25T22:08:30.712Z,56.55
2022-11-25T22:11:01.787Z,52.92
2022-11-25T22:13:40.206Z,69.07
2022-11-25T22:16:18.613Z,90.60
2022-11-25T22:18:49.976Z,128.13
2022-11-25T22:21:21.773Z,113.00
2022-11-25T22:23:54.255Z,77.78
2022-11-25T22:26:31.773Z,80.43
2022-11-25T22:29:03.741Z,92.93
2022-11-25T22:31:37.718Z,84.40
2022-11-25T22:34:09.149Z,85.18
2022-11-25T22:36:42.244Z,77.25
2022-11-25T22:39:18.936Z,70.57
2022-11-25T22:41:51.980Z,67.63
2022-11-25T22:44:26.799Z,60.38
2022-11-25T22:47:00.594Z,52.08
2022-11-25T22:49:37.675Z,51.28
2022-11-25T22:52:09.398Z,45.25
2022-11-25T22:54:40.978Z,43.80
2022-11-25T22:57:12.788Z,49.28
2022-11-25T22:59:44.113Z,56.70
2022-11-25T23:02:22.891Z,59.97
2022-11-25T23:04:57.034Z,54.47
2022-11-25T23:07:28.936Z,57.47
2022-11-25T23:10:00.197Z,51.83
2022-11-25T23:12:31.008Z,55.17
2022-11-25T23:15:02.261Z,49.05
2022-11-25T23:17:35.646Z,55.85
2022-11-25T23:20:06.776Z,52.65
2022-11-25T23:22:37.962Z,38.30
2022-11-25T23:25:16.488Z,47.55
2022-11-25T23:27:47.261Z,43.45
2022-11-25T23:30:23.973Z,41.17
2022-11-25T23:32:57.985Z,47.28
2022-11-25T23:35:35.027Z,44.80
2022-11-25T23:38:08.595Z,38.72
2022-11-25T23:40:39.761Z,40.90
2022-11-25T23:43:15.741Z,42.83
2022-11-25T23:45:51.163Z,45.03
2022-11-25T23:48:27.889Z,43.17
2022-11-25T23:51:00.104Z,42.50
2022-11-25T23:53:34.040Z,40.72
2022-11-25T23:56:04.850Z,34.88
2022-11-25T23:58:35.773Z,39.35
